Startpagina
METAR-TAF:

METAR-TAF

Vliegvelden :

Pago Pago, Kleine afgelegen eilanden van de Verenigde Staten

breedte: 14-20S, lengte: 170-43W, hoogte: 3 m

Actueel weer

Dit bericht is 1 uur en het 6 minuten geleden gemaakt, om 11:51 UTC
Wind 10 kt uit het zuidoosten
Temperatuur 28°C
Vochtigheid 89%
Druk 1012 hPa
Zicht: 16.1 km
Verspreide wolken op 2000 ft
Gebroken wolken op 12000 ft

METAR: NSTU 211151Z 13010KT 10SM SCT020 BKN120 28/26 A2989 RMK SLP122 70006 8/170 T02770258 10284 20277 56002

Tijdstip: 01:57 (12:57 UTC)

Verwachting

Dit bericht is 1 uur en het 34 minuten geleden gemaakt, om 11:23 UTC
Verwachting geldig van 21 om 12 UTC tot 22 om 12 UTC
Wind 11 kt uit het oostzuidoosten
Zicht: 10 km
Verspreide wolken op 2000 ft
Verspreide wolken op 4000 ft

TAF: NSTU 211123Z 2112/2212 12011KT P6SM SCT020 SCT040

Waarnemingen en weersverwachtingen van meer dan 4000 vliegvelden (METAR en TAF).

De beschikbare stations zijn de gele en rode punten op de kaart.

Ga met uw muis naar het station om de naam te zien.

Klik dan om waarnemingen en weersverwachtingen te zien.

kaart wijzigen: klik op de groene knoppen met een zwart kruis om in te zoomen, op de groene knop met een streepje om uit te zoomen of op de groene pijlen voor aangrenzende kaarten.


METAR-TAF: